Time;durP1;ratioP1;P1;durP2;ratioP2;P2;SDS_P1;SDS_P2;PMS_P1;PMS_P2;Temp;Humidity;BMP_temperature;BMP_pressure;BME280_temperature;BME280_humidity;BME280_pressure;Samples;Min_cycle;Max_cycle;Signal;HPM_P1;HPM_P2
2022/04/15 00:01:09;;;;;;;19.97;18.10;;;11.60;1.00;;;;;;6282018;28;20761;-57
2022/04/15 00:04:11;;;;;;;18.23;16.57;;;11.50;1.00;;;;;;6285421;28;20240;-56
2022/04/15 00:07:14;;;;;;;18.47;16.77;;;11.40;1.00;;;;;;6277867;28;20229;-56
2022/04/15 00:10:17;;;;;;;20.23;18.10;;;11.30;1.00;;;;;;6277429;28;20855;-56
2022/04/15 00:13:24;;;;;;;20.07;18.00;;;11.30;1.00;;;;;;6280732;28;20883;-57
2022/04/15 00:16:27;;;;;;;21.37;17.73;;;11.30;1.00;;;;;;6282223;28;20241;-59
2022/04/15 00:19:30;;;;;;;19.90;17.83;;;11.20;1.00;;;;;;6277576;28;20260;-57
2022/04/15 00:22:33;;;;;;;22.13;18.97;;;11.20;1.00;;;;;;6282465;28;20244;-56
2022/04/15 00:25:36;;;;;;;19.10;17.10;;;11.20;1.00;;;;;;6277401;28;20265;-56
2022/04/15 00:28:39;;;;;;;20.70;18.50;;;11.20;1.00;;;;;;6275559;28;20255;-57
2022/04/15 00:31:42;;;;;;;20.47;18.23;;;11.10;1.00;;;;;;6277157;28;20271;-57
2022/04/15 00:34:45;;;;;;;20.30;18.40;;;11.10;1.00;;;;;;6281448;28;20402;-56
2022/04/15 00:37:48;;;;;;;19.83;17.83;;;11.10;1.00;;;;;;6274334;28;20359;-57
2022/04/15 00:40:50;;;;;;;20.07;17.90;;;11.10;1.00;;;;;;6281019;28;20259;-57
2022/04/15 00:43:55;;;;;;;18.10;16.40;;;11.10;1.00;;;;;;6273075;28;20240;-56
2022/04/15 00:46:58;;;;;;;16.87;15.43;;;11.10;1.00;;;;;;6264188;28;20234;-56
2022/04/15 00:50:00;;;;;;;18.50;16.53;;;11.10;1.00;;;;;;6275791;28;20394;-57
2022/04/15 00:53:09;;;;;;;17.70;15.97;;;11.10;1.00;;;;;;6276521;28;20374;-55
2022/04/15 00:56:13;;;;;;;17.70;15.87;;;11.10;1.00;;;;;;6261675;28;20499;-55
2022/04/15 00:59:19;;;;;;;17.27;15.60;;;11.10;1.00;;;;;;6268117;28;20308;-56
2022/04/15 01:02:24;;;;;;;16.43;15.00;;;11.10;1.00;;;;;;6277602;28;20329;-56
2022/04/15 01:05:28;;;;;;;16.37;14.97;;;11.10;1.00;;;;;;6272460;28;20684;-56
2022/04/15 01:08:32;;;;;;;16.87;15.27;;;11.10;1.00;;;;;;6272251;28;20240;-55
2022/04/15 01:11:36;;;;;;;16.03;14.40;;;11.10;1.00;;;;;;6282938;28;20606;-57
2022/04/15 01:14:41;;;;;;;14.30;13.00;;;11.10;1.00;;;;;;6284489;28;20701;-55
2022/04/15 01:17:43;;;;;;;14.03;12.57;;;11.20;1.00;;;;;;6270059;28;20254;-56
2022/04/15 01:20:48;;;;;;;14.23;12.17;;;11.10;1.00;;;;;;6278403;28;20649;-56
2022/04/15 01:23:53;;;;;;;13.73;12.43;;;11.10;1.00;;;;;;6268942;28;20317;-57
2022/04/15 01:26:56;;;;;;;14.73;11.37;;;11.10;1.00;;;;;;6279419;28;20804;-55
2022/04/15 01:29:59;;;;;;;11.57;10.30;;;11.10;1.00;;;;;;6279160;28;20561;-56
2022/04/15 01:33:03;;;;;;;12.40;11.20;;;11.00;1.00;;;;;;6281051;28;20229;-56
2022/04/15 01:36:07;;;;;;;11.97;11.03;;;11.00;1.00;;;;;;6282597;28;20267;-56
2022/04/15 01:39:12;;;;;;;13.40;12.10;;;10.90;1.00;;;;;;6273182;28;20717;-55
2022/04/15 01:42:15;;;;;;;11.67;10.80;;;10.90;1.00;;;;;;6282000;28;20447;-56
2022/04/15 01:45:18;;;;;;;11.77;10.73;;;10.90;1.00;;;;;;6284436;28;20247;-57
2022/04/15 01:48:20;;;;;;;10.47;9.73;;;10.80;1.00;;;;;;6277162;28;20319;-57
2022/04/15 01:51:23;;;;;;;11.17;10.30;;;10.70;1.00;;;;;;6276650;28;20884;-56
2022/04/15 01:54:28;;;;;;;11.47;10.23;;;10.50;1.00;;;;;;6284680;28;20233;-56
2022/04/15 01:57:31;;;;;;;10.93;10.03;;;10.40;1.00;;;;;;6275766;28;20302;-56
2022/04/15 02:00:33;;;;;;;11.47;10.40;;;10.30;1.00;;;;;;6280548;28;20236;-57
2022/04/15 02:03:36;;;;;;;11.13;10.03;;;10.20;1.00;;;;;;6283860;28;20295;-56
2022/04/15 02:06:39;;;;;;;11.40;10.23;;;10.10;1.00;;;;;;6284342;28;20660;-55
2022/04/15 02:09:43;;;;;;;12.93;10.23;;;10.00;1.00;;;;;;6284970;28;20713;-57
2022/04/15 02:12:45;;;;;;;11.20;10.00;;;9.80;1.00;;;;;;6275699;28;20336;-57
2022/04/15 02:15:48;;;;;;;12.57;11.23;;;9.70;1.00;;;;;;6283522;28;20234;-56
2022/04/15 02:18:51;;;;;;;11.30;10.10;;;9.70;1.00;;;;;;6269631;28;20504;-55
2022/04/15 02:21:54;;;;;;;12.70;10.37;;;9.60;1.00;;;;;;6276002;28;20420;-57
2022/04/15 02:24:58;;;;;;;11.70;10.50;;;9.60;1.00;;;;;;6283791;28;20240;-56
2022/04/15 02:28:00;;;;;;;11.80;10.67;;;9.50;1.00;;;;;;6267820;28;20314;-57
2022/04/15 02:31:03;;;;;;;11.57;10.47;;;9.50;1.00;;;;;;6284279;28;20240;-56
2022/04/15 02:34:06;;;;;;;10.93;10.03;;;9.40;1.00;;;;;;6280460;28;20245;-56
2022/04/15 02:37:09;;;;;;;10.83;9.80;;;9.40;1.00;;;;;;6285259;28;20783;-56
2022/04/15 02:40:13;;;;;;;10.37;9.37;;;9.40;1.00;;;;;;6274391;28;20793;-57
2022/04/15 02:43:16;;;;;;;12.33;10.43;;;9.40;1.00;;;;;;6280618;28;20237;-57
2022/04/15 02:46:20;;;;;;;11.73;10.53;;;9.30;1.00;;;;;;6279324;28;20246;-54
2022/04/15 02:49:22;;;;;;;11.30;10.30;;;9.20;1.00;;;;;;6270786;28;20248;-57
2022/04/15 02:52:25;;;;;;;11.90;10.73;;;9.20;1.00;;;;;;6277335;28;20874;-56
2022/04/15 02:55:29;;;;;;;12.50;10.97;;;9.10;1.00;;;;;;6282749;28;20273;-55
2022/04/15 02:58:32;;;;;;;11.20;10.20;;;9.10;1.00;;;;;;6266677;28;20837;-53
2022/04/15 03:01:35;;;;;;;11.27;10.17;;;9.10;1.00;;;;;;6275738;28;20239;-56
2022/04/15 03:04:37;;;;;;;11.60;10.20;;;9.10;1.00;;;;;;6283076;28;20237;-57
2022/04/15 03:07:40;;;;;;;13.60;10.83;;;9.10;1.00;;;;;;6274341;28;20346;-55
2022/04/15 03:10:44;;;;;;;14.03;11.13;;;9.00;1.00;;;;;;6276242;28;20737;-56
2022/04/15 03:13:47;;;;;;;11.73;10.53;;;9.00;1.00;;;;;;6275572;28;20783;-55
2022/04/15 03:16:50;;;;;;;9.63;8.93;;;9.00;1.00;;;;;;6274252;28;20238;-55
2022/04/15 03:19:53;;;;;;;10.73;9.83;;;9.00;1.00;;;;;;6270322;28;20777;-55
2022/04/15 03:22:55;;;;;;;10.37;9.47;;;9.00;1.00;;;;;;6282578;28;20321;-57
2022/04/15 03:26:01;;;;;;;11.67;10.50;;;9.10;1.00;;;;;;6281554;28;20233;-56
2022/04/15 03:29:03;;;;;;;10.63;9.80;;;9.10;1.00;;;;;;6259066;28;20677;-56
2022/04/15 03:32:07;;;;;;;10.47;9.63;;;9.10;1.00;;;;;;6266104;28;20237;-56
2022/04/15 03:35:10;;;;;;;10.77;9.97;;;9.10;1.00;;;;;;6276836;28;20641;-55
2022/04/15 03:38:12;;;;;;;11.93;10.50;;;9.10;1.00;;;;;;6276973;28;20729;-55
2022/04/15 03:41:16;;;;;;;12.57;11.47;;;9.10;1.00;;;;;;6278693;28;20234;-56
2022/04/15 03:44:19;;;;;;;12.17;10.47;;;9.10;1.00;;;;;;6278089;28;20230;-56
2022/04/15 03:47:22;;;;;;;12.47;11.20;;;9.00;1.00;;;;;;6278439;28;20519;-56
2022/04/15 03:50:25;;;;;;;12.30;11.20;;;9.10;1.00;;;;;;6276677;28;20856;-54
2022/04/15 03:53:28;;;;;;;12.00;11.00;;;9.10;1.00;;;;;;6286203;28;20608;-56
2022/04/15 03:56:32;;;;;;;12.27;11.00;;;9.10;1.00;;;;;;6287821;28;20740;-57
2022/04/15 03:59:34;;;;;;;13.30;11.80;;;9.10;1.00;;;;;;6282218;28;20702;-56
2022/04/15 04:02:37;;;;;;;12.20;11.03;;;9.10;1.00;;;;;;6280950;28;20363;-57
2022/04/15 04:05:40;;;;;;;12.27;11.03;;;9.10;1.00;;;;;;6281234;28;20332;-57
2022/04/15 04:08:49;;;;;;;12.70;11.40;;;9.10;1.00;;;;;;6277254;28;20482;-56
2022/04/15 04:11:55;;;;;;;11.97;11.07;;;9.00;1.00;;;;;;6259009;28;20311;-57
2022/04/15 04:14:57;;;;;;;13.70;12.40;;;9.10;1.00;;;;;;6289767;28;20233;-56
2022/04/15 04:18:00;;;;;;;13.77;12.30;;;9.00;1.00;;;;;;6279204;28;20475;-57
2022/04/15 04:21:03;;;;;;;13.70;11.60;;;9.10;1.00;;;;;;6280582;28;20229;-55
2022/04/15 04:24:06;;;;;;;13.13;11.90;;;9.10;1.00;;;;;;6284449;28;20327;-56
2022/04/15 04:27:10;;;;;;;13.47;12.13;;;9.10;1.00;;;;;;6285547;28;20249;-56
2022/04/15 04:30:14;;;;;;;12.83;11.53;;;9.10;1.00;;;;;;6280713;28;20323;-56
2022/04/15 04:33:18;;;;;;;13.33;12.10;;;9.10;1.00;;;;;;6285992;28;20237;-56
2022/04/15 04:36:21;;;;;;;12.63;11.53;;;9.10;1.00;;;;;;6282297;28;20310;-57
2022/04/15 04:39:25;;;;;;;13.30;12.00;;;9.10;1.00;;;;;;6282592;28;20294;-56
2022/04/15 04:42:30;;;;;;;13.30;12.13;;;9.10;1.00;;;;;;6284663;28;20780;-56
2022/04/15 04:45:34;;;;;;;13.10;12.10;;;9.10;1.00;;;;;;6286023;28;20468;-57
2022/04/15 04:48:36;;;;;;;13.37;12.17;;;9.10;1.00;;;;;;6283567;28;20331;-55
2022/04/15 04:51:39;;;;;;;12.93;11.67;;;9.00;1.00;;;;;;6287398;28;20245;-56
2022/04/15 04:54:42;;;;;;;13.90;12.40;;;9.00;1.00;;;;;;6282232;28;20272;-57
2022/04/15 04:57:46;;;;;;;12.67;11.40;;;9.10;1.00;;;;;;6280378;28;20443;-56
2022/04/15 05:00:49;;;;;;;12.97;11.77;;;9.10;1.00;;;;;;6291286;28;20606;-57
2022/04/15 05:03:52;;;;;;;12.73;11.43;;;9.10;1.00;;;;;;6293229;28;20859;-55
2022/04/15 05:06:54;;;;;;;13.50;11.57;;;9.10;1.00;;;;;;6283357;28;20589;-55
2022/04/15 05:09:58;;;;;;;12.00;10.90;;;9.10;1.00;;;;;;6277757;28;20662;-56
2022/04/15 05:13:01;;;;;;;12.50;11.20;;;9.10;1.00;;;;;;6289805;28;20672;-57
2022/04/15 05:16:05;;;;;;;12.20;10.30;;;9.10;1.00;;;;;;6284813;28;20767;-55
2022/04/15 05:19:08;;;;;;;12.03;10.87;;;9.20;1.00;;;;;;6283382;28;20243;-57
2022/04/15 05:22:11;;;;;;;11.90;10.33;;;9.20;1.00;;;;;;6287827;28;20778;-55
2022/04/15 05:25:14;;;;;;;11.13;10.30;;;9.20;1.00;;;;;;6281540;28;20764;-55
2022/04/15 05:28:19;;;;;;;13.83;11.03;;;9.30;1.00;;;;;;6284276;28;20750;-56
2022/04/15 05:31:21;;;;;;;11.13;10.33;;;9.30;1.00;;;;;;6292026;28;20248;-56
2022/04/15 05:34:24;;;;;;;11.43;10.43;;;9.30;1.00;;;;;;6291682;28;20370;-56
2022/04/15 05:37:27;;;;;;;11.63;10.63;;;9.30;1.00;;;;;;6276414;28;20264;-54
2022/04/15 05:40:30;;;;;;;11.60;10.40;;;9.30;1.00;;;;;;6281556;28;20241;-55
2022/04/15 05:43:34;;;;;;;11.00;10.10;;;9.30;1.00;;;;;;6288666;28;20232;-56
2022/04/15 05:46:37;;;;;;;11.27;10.30;;;9.40;1.00;;;;;;6289757;28;20382;-55
2022/04/15 05:49:40;;;;;;;11.67;10.57;;;9.40;1.00;;;;;;6284027;28;20296;-57
2022/04/15 05:52:43;;;;;;;11.57;10.60;;;9.40;1.00;;;;;;6279243;28;20335;-57
2022/04/15 05:55:45;;;;;;;11.83;10.63;;;9.50;1.00;;;;;;6285820;28;20234;-57
2022/04/15 05:58:50;;;;;;;10.53;9.63;;;9.50;1.00;;;;;;6286732;28;20256;-55
2022/04/15 06:01:52;;;;;;;10.50;9.50;;;9.50;1.00;;;;;;6281159;28;20229;-58
2022/04/15 06:04:55;;;;;;;10.63;9.73;;;9.60;1.00;;;;;;6273245;28;20287;-56
2022/04/15 06:07:58;;;;;;;10.87;10.07;;;9.60;1.00;;;;;;6273009;28;20264;-55
2022/04/15 06:11:00;;;;;;;10.30;9.50;;;9.60;1.00;;;;;;6278582;28;20398;-55
2022/04/15 06:14:06;;;;;;;10.90;9.90;;;9.60;1.00;;;;;;6290073;28;20729;-57
2022/04/15 06:17:08;;;;;;;11.40;10.20;;;9.60;1.00;;;;;;6281347;28;20260;-57
2022/04/15 06:20:12;;;;;;;11.83;10.40;;;9.60;1.00;;;;;;6285684;28;20296;-57
2022/04/15 06:23:15;;;;;;;10.20;9.40;;;9.60;1.00;;;;;;6278925;28;20312;-55
2022/04/15 06:26:18;;;;;;;10.90;9.90;;;9.70;1.00;;;;;;6288894;28;20307;-57
2022/04/15 06:29:22;;;;;;;10.20;9.40;;;9.70;1.00;;;;;;6280636;28;20262;-56
2022/04/15 06:32:25;;;;;;;10.83;9.77;;;9.80;1.00;;;;;;6278492;28;20260;-56
2022/04/15 06:35:28;;;;;;;10.47;9.57;;;9.90;1.00;;;;;;6279967;28;20311;-57
2022/04/15 06:38:30;;;;;;;9.93;9.03;;;9.80;1.00;;;;;;6279454;28;20320;-57
2022/04/15 06:41:34;;;;;;;11.70;9.73;;;9.80;1.00;;;;;;6290341;28;20365;-56
2022/04/15 06:44:38;;;;;;;11.77;10.63;;;9.80;1.00;;;;;;6279366;28;20284;-56
2022/04/15 06:47:41;;;;;;;11.90;9.67;;;10.00;1.00;;;;;;6281040;28;20407;-56
2022/04/15 06:50:44;;;;;;;11.20;10.30;;;9.90;1.00;;;;;;6284677;28;20233;-56
2022/04/15 06:53:46;;;;;;;9.43;8.47;;;10.00;1.00;;;;;;6273329;28;20777;-56
2022/04/15 06:56:49;;;;;;;9.90;9.07;;;10.00;1.00;;;;;;6281427;28;20237;-57
2022/04/15 06:59:53;;;;;;;10.77;9.77;;;10.10;1.00;;;;;;6281942;28;20375;-56
2022/04/15 07:02:56;;;;;;;9.40;8.60;;;10.20;1.00;;;;;;6281220;28;20253;-56
2022/04/15 07:05:59;;;;;;;9.97;9.17;;;10.20;1.00;;;;;;6283087;28;20581;-55
2022/04/15 07:09:01;;;;;;;9.60;8.93;;;10.20;1.00;;;;;;6290057;28;20342;-56
2022/04/15 07:12:05;;;;;;;9.40;8.80;;;10.10;1.00;;;;;;6290150;28;20638;-56
2022/04/15 07:15:10;;;;;;;10.40;9.30;;;10.20;1.00;;;;;;6277924;28;20245;-56
2022/04/15 07:18:13;;;;;;;10.37;9.30;;;10.10;1.00;;;;;;6282352;28;20233;-56
2022/04/15 07:21:18;;;;;;;9.90;9.10;;;10.00;1.00;;;;;;6283209;28;20367;-57
2022/04/15 07:24:21;;;;;;;10.23;9.40;;;10.10;1.00;;;;;;6287694;28;20229;-57
2022/04/15 07:27:24;;;;;;;10.57;9.57;;;10.10;1.00;;;;;;6286314;28;20238;-57
2022/04/15 07:30:29;;;;;;;10.30;9.40;;;10.10;1.00;;;;;;6279998;28;20272;-55
2022/04/15 07:33:32;;;;;;;10.13;9.40;;;10.10;1.00;;;;;;6280622;28;20480;-56
2022/04/15 07:36:45;;;;;;;10.20;9.40;;;10.10;1.00;;;;;;6282018;28;20245;-56
2022/04/15 07:39:48;;;;;;;9.47;8.67;;;10.10;1.00;;;;;;6283910;28;20222;-58
2022/04/15 07:42:51;;;;;;;9.77;9.03;;;10.20;1.00;;;;;;6290359;28;20324;-56
2022/04/15 07:45:55;;;;;;;10.37;9.40;;;10.20;1.00;;;;;;6287180;28;20245;-56
2022/04/15 07:48:57;;;;;;;10.17;9.20;;;10.10;1.00;;;;;;6273956;28;20229;-56
2022/04/15 07:52:06;;;;;;;10.27;9.37;;;10.10;1.00;;;;;;6287742;28;20239;-57
2022/04/15 07:55:09;;;;;;;9.97;9.17;;;10.20;1.00;;;;;;6281121;28;20386;-57
2022/04/15 07:58:12;;;;;;;9.77;8.87;;;10.20;1.00;;;;;;6284526;28;20307;-57
2022/04/15 08:01:16;;;;;;;10.00;9.30;;;10.10;1.00;;;;;;6279969;28;20399;-57
2022/04/15 08:04:19;;;;;;;10.73;9.73;;;10.10;1.00;;;;;;6286636;28;20236;-56
2022/04/15 08:07:22;;;;;;;9.73;8.93;;;10.20;1.00;;;;;;6285579;28;20240;-56
2022/04/15 08:10:25;;;;;;;10.97;9.83;;;10.10;1.00;;;;;;6295267;28;20242;-56
2022/04/15 08:13:27;;;;;;;10.63;9.40;;;10.30;1.00;;;;;;6277767;28;20709;-56
2022/04/15 08:16:31;;;;;;;10.73;8.70;;;10.30;1.00;;;;;;6287851;28;20776;-59
2022/04/15 08:19:35;;;;;;;10.30;9.40;;;10.40;1.00;;;;;;6283546;28;20671;-56
2022/04/15 08:22:38;;;;;;;9.73;8.70;;;10.40;1.00;;;;;;6295407;28;20248;-56
2022/04/15 08:25:43;;;;;;;9.80;8.77;;;10.40;1.00;;;;;;6288395;28;20240;-57
2022/04/15 08:28:46;;;;;;;10.47;9.47;;;10.40;1.00;;;;;;6281385;28;20635;-57
2022/04/15 08:31:50;;;;;;;9.67;8.97;;;10.40;1.00;;;;;;6287916;28;20644;-57
2022/04/15 08:34:52;;;;;;;11.63;10.57;;;10.40;1.00;;;;;;6291816;28;20285;-56
2022/04/15 08:37:55;;;;;;;10.03;9.23;;;10.40;1.00;;;;;;6294520;28;20275;-57
2022/04/15 08:40:59;;;;;;;10.27;9.33;;;10.40;1.00;;;;;;6286189;28;20324;-57
2022/04/15 08:44:05;;;;;;;10.70;9.67;;;10.30;1.00;;;;;;6285720;28;20339;-56
2022/04/15 08:47:11;;;;;;;9.87;9.07;;;10.20;1.00;;;;;;6279835;28;20336;-57
2022/04/15 08:50:14;;;;;;;9.93;9.03;;;10.20;1.00;;;;;;6283267;28;20322;-57
2022/04/15 08:53:20;;;;;;;10.67;9.57;;;10.20;1.00;;;;;;6286266;28;20318;-57
2022/04/15 08:56:23;;;;;;;10.13;9.13;;;10.20;1.00;;;;;;6286834;28;20268;-57
2022/04/15 08:59:26;;;;;;;10.33;9.30;;;10.20;1.00;;;;;;6280774;28;20233;-56
2022/04/15 09:02:36;;;;;;;11.37;9.77;;;10.20;1.00;;;;;;6286067;28;20409;-56
2022/04/15 09:05:49;;;;;;;10.30;9.50;;;10.20;1.00;;;;;;6284072;28;20237;-57
2022/04/15 09:09:03;;;;;;;11.43;9.93;;;10.20;1.00;;;;;;6285805;28;20225;-56
2022/04/15 09:12:15;;;;;;;10.60;9.67;;;10.20;1.00;;;;;;6275787;28;20261;-57
2022/04/15 09:15:18;;;;;;;9.97;9.03;;;10.20;1.00;;;;;;6297695;28;20533;-57
2022/04/15 09:18:35;;;;;;;10.57;9.53;;;10.20;1.00;;;;;;6284709;28;20390;-59
2022/04/15 09:21:51;;;;;;;12.50;9.93;;;10.10;1.00;;;;;;6284603;28;20237;-56
2022/04/15 09:24:54;;;;;;;13.00;9.77;;;10.10;1.00;;;;;;6291993;28;20260;-56
2022/04/15 09:27:58;;;;;;;9.73;8.83;;;10.10;1.00;;;;;;6280686;28;20239;-58
2022/04/15 09:31:01;;;;;;;9.17;8.47;;;10.10;1.00;;;;;;6284498;28;20364;-55
2022/04/15 09:34:08;;;;;;;10.57;9.60;;;10.10;1.00;;;;;;6287241;28;20233;-56
2022/04/15 09:37:11;;;;;;;10.27;9.10;;;10.10;1.00;;;;;;6286269;28;20237;-56
2022/04/15 09:40:15;;;;;;;10.17;9.37;;;10.00;1.00;;;;;;6283520;28;21542;-56
2022/04/15 09:43:18;;;;;;;11.17;10.07;;;10.00;1.00;;;;;;6283948;28;20327;-56
2022/04/15 09:46:21;;;;;;;11.23;10.13;;;10.00;1.00;;;;;;6285596;28;20243;-57
2022/04/15 09:49:26;;;;;;;9.90;9.00;;;10.00;1.00;;;;;;6280810;28;20339;-56
2022/04/15 09:52:28;;;;;;;11.43;10.33;;;10.00;1.00;;;;;;6284968;28;20226;-55
2022/04/15 09:55:31;;;;;;;9.77;8.97;;;9.90;1.00;;;;;;6282434;28;20241;-56
2022/04/15 09:58:36;;;;;;;10.53;9.73;;;9.90;1.00;;;;;;6283801;28;20271;-55
2022/04/15 10:01:45;;;;;;;9.27;8.57;;;9.80;1.00;;;;;;6284245;28;20283;-58
2022/04/15 10:04:49;;;;;;;10.80;9.50;;;9.80;1.00;;;;;;6284156;28;20484;-56
2022/04/15 10:07:53;;;;;;;9.87;9.23;;;9.80;1.00;;;;;;6285003;28;20701;-56
2022/04/15 10:10:56;;;;;;;9.73;8.97;;;9.80;1.00;;;;;;6276187;28;20517;-57
2022/04/15 10:13:59;;;;;;;10.13;9.30;;;9.90;1.00;;;;;;6280483;28;20562;-55
2022/04/15 10:17:03;;;;;;;10.50;9.57;;;9.90;1.00;;;;;;6290950;28;20233;-57
2022/04/15 10:20:08;;;;;;;9.97;9.07;;;9.90;1.00;;;;;;6283906;28;20314;-55
2022/04/15 10:23:13;;;;;;;10.07;9.27;;;9.90;1.00;;;;;;6282708;28;20824;-54
2022/04/15 10:26:18;;;;;;;10.93;9.83;;;9.90;1.00;;;;;;6282906;28;20782;-55
2022/04/15 10:29:21;;;;;;;10.03;9.23;;;9.90;1.00;;;;;;6289835;28;20300;-55
2022/04/15 10:32:24;;;;;;;9.87;9.00;;;9.90;1.00;;;;;;6282928;28;20237;-58
2022/04/15 10:35:30;;;;;;;8.83;8.13;;;9.90;1.00;;;;;;6283370;28;20371;-56
2022/04/15 10:38:32;;;;;;;9.20;8.53;;;10.00;1.00;;;;;;6290760;28;20244;-57
2022/04/15 10:41:51;;;;;;;9.43;8.63;;;9.90;1.00;;;;;;6285720;28;20235;-57
2022/04/15 10:45:01;;;;;;;9.13;8.53;;;9.90;1.00;;;;;;6281039;28;20234;-55
2022/04/15 10:48:05;;;;;;;9.13;8.23;;;10.00;1.00;;;;;;6281664;28;20267;-56
2022/04/15 10:51:24;;;;;;;8.03;7.43;;;9.90;1.00;;;;;;6283646;28;20773;-57
2022/04/15 10:54:32;;;;;;;8.07;7.47;;;9.90;1.00;;;;;;6283467;28;20237;-57
2022/04/15 10:57:37;;;;;;;8.67;8.07;;;10.00;1.00;;;;;;6281682;28;20732;-57
2022/04/15 11:04:04;;;;;;;8.17;7.57;;;10.00;1.00;;;;;;6280899;28;20264;-56
2022/04/15 11:07:17;;;;;;;7.30;6.90;;;10.10;1.00;;;;;;6278067;28;20594;-58
2022/04/15 11:10:46;;;;;;;8.37;7.77;;;10.20;1.00;;;;;;6277970;28;20698;-58
2022/04/15 11:14:03;;;;;;;7.47;6.93;;;10.20;1.00;;;;;;6275813;28;20509;-58
2022/04/15 11:17:09;;;;;;;6.63;6.23;;;10.40;1.00;;;;;;6278599;28;20233;-57
2022/04/15 11:20:13;;;;;;;6.40;6.00;;;10.40;1.00;;;;;;6280239;28;20714;-56
2022/04/15 11:23:17;;;;;;;6.30;6.03;;;10.40;1.00;;;;;;6284367;28;20870;-56
2022/04/15 11:26:21;;;;;;;6.17;5.87;;;10.40;1.00;;;;;;6283436;28;20737;-56
2022/04/15 11:29:29;;;;;;;5.83;5.53;;;10.40;1.00;;;;;;6278818;28;20301;-56
2022/04/15 11:32:32;;;;;;;5.37;5.17;;;10.40;1.00;;;;;;6286297;28;20473;-57
2022/04/15 11:35:36;;;;;;;5.13;4.83;;;10.40;1.00;;;;;;6282828;28;20261;-57
2022/04/15 11:38:41;;;;;;;5.47;5.07;;;10.40;1.00;;;;;;6286062;28;20320;-57
2022/04/15 11:41:45;;;;;;;4.67;4.47;;;10.30;1.00;;;;;;6291601;28;20302;-57
2022/04/15 11:44:48;;;;;;;5.13;4.87;;;10.30;1.00;;;;;;6277258;28;20621;-56
2022/04/15 11:47:50;;;;;;;4.83;4.63;;;10.20;1.00;;;;;;6281782;28;20233;-57
2022/04/15 11:50:54;;;;;;;4.93;4.63;;;10.30;1.00;;;;;;6282439;28;20244;-57
2022/04/15 11:53:59;;;;;;;4.63;4.43;;;10.60;1.00;;;;;;6285555;28;20244;-57
2022/04/15 11:57:04;;;;;;;4.30;4.20;;;10.30;1.00;;;;;;6282203;28;20487;-57
2022/04/15 12:00:10;;;;;;;4.77;4.57;;;10.30;1.00;;;;;;6280032;28;20241;-56
2022/04/15 12:03:13;;;;;;;4.10;4.00;;;10.40;1.00;;;;;;6284233;28;20320;-57
2022/04/15 12:06:16;;;;;;;4.00;3.90;;;10.40;1.00;;;;;;6281984;28;20603;-56
2022/04/15 12:09:20;;;;;;;3.90;3.70;;;10.50;1.00;;;;;;6286532;28;20306;-57
2022/04/15 12:12:43;;;;;;;4.30;4.20;;;10.50;1.00;;;;;;6276522;28;20257;-57
2022/04/15 12:15:47;;;;;;;4.03;3.87;;;10.50;1.00;;;;;;6282900;28;20604;-57
2022/04/15 12:18:50;;;;;;;3.70;3.60;;;10.50;1.00;;;;;;6281695;28;20848;-57
2022/04/15 12:21:53;;;;;;;4.43;4.27;;;10.50;1.00;;;;;;6285937;28;20538;-56
2022/04/15 12:25:15;;;;;;;4.93;4.83;;;10.50;1.00;;;;;;6273879;28;20237;-56
2022/04/15 12:31:39;;;;;;;4.03;3.93;;;10.60;1.00;;;;;;6278124;28;20397;-52
2022/04/15 12:34:43;;;;;;;4.23;4.13;;;10.50;1.00;;;;;;6284830;28;20248;-57
2022/04/15 12:37:50;;;;;;;4.40;4.30;;;10.50;1.00;;;;;;6284802;28;20571;-56
2022/04/15 12:41:00;;;;;;;3.87;3.77;;;10.50;1.00;;;;;;6281508;28;20718;-58
2022/04/15 12:44:14;;;;;;;4.30;4.20;;;10.60;1.00;;;;;;6267094;28;20347;-58
2022/04/15 12:47:17;;;;;;;4.33;4.20;;;10.60;1.00;;;;;;6268476;28;20237;-57
2022/04/15 12:50:23;;;;;;;4.27;4.07;;;10.50;1.00;;;;;;6284480;28;20362;-56
2022/04/15 12:53:27;;;;;;;4.20;4.10;;;10.60;1.00;;;;;;6276696;28;20239;-56
2022/04/15 12:56:31;;;;;;;4.30;4.20;;;10.60;1.00;;;;;;6285851;28;20852;-56
2022/04/15 12:59:34;;;;;;;4.40;4.30;;;10.60;1.00;;;;;;6286697;28;20240;-57
2022/04/15 13:02:37;;;;;;;3.90;3.80;;;10.80;1.00;;;;;;6288805;28;20336;-57
2022/04/15 13:05:40;;;;;;;4.20;4.10;;;10.80;1.00;;;;;;6284093;28;20241;-57
2022/04/15 13:08:43;;;;;;;4.77;4.57;;;10.90;1.00;;;;;;6288446;28;20661;-57
2022/04/15 13:11:47;;;;;;;4.47;4.17;;;10.80;1.00;;;;;;6279433;28;20730;-58
2022/04/15 13:14:51;;;;;;;4.10;3.90;;;10.80;1.00;;;;;;6288565;28;20483;-57
2022/04/15 13:17:54;;;;;;;4.03;3.90;;;11.00;1.00;;;;;;6279159;28;20229;-57
2022/04/15 13:20:56;;;;;;;3.70;3.60;;;11.10;1.00;;;;;;6280755;28;20338;-57
2022/04/15 13:24:00;;;;;;;3.33;3.33;;;11.20;1.00;;;;;;6285815;28;20314;-57
2022/04/15 13:27:05;;;;;;;3.77;3.67;;;11.40;1.00;;;;;;6278579;28;20241;-57
2022/04/15 13:30:09;;;;;;;3.53;3.50;;;11.40;1.00;;;;;;6278406;28;20745;-56
2022/04/15 13:33:12;;;;;;;3.00;3.00;;;11.40;1.00;;;;;;6285200;28;20744;-57
2022/04/15 13:36:15;;;;;;;3.43;3.33;;;11.40;1.00;;;;;;6283171;28;20233;-57
2022/04/15 13:39:17;;;;;;;3.47;3.37;;;11.30;1.00;;;;;;6293345;28;20281;-58
2022/04/15 13:42:22;;;;;;;3.60;3.30;;;11.20;1.00;;;;;;6277739;28;20788;-57
2022/04/15 13:45:25;;;;;;;3.20;3.10;;;11.10;1.00;;;;;;6288264;28;20261;-57
2022/04/15 13:48:27;;;;;;;2.90;2.90;;;11.00;1.00;;;;;;6280815;28;20239;-57
2022/04/15 13:51:31;;;;;;;3.10;3.10;;;10.90;1.00;;;;;;6285160;28;20752;-58
2022/04/15 13:57:55;;;;;;;4.00;3.90;;;10.70;1.00;;;;;;6276872;28;20229;-56
2022/04/15 14:00:57;;;;;;;3.80;3.70;;;10.60;1.00;;;;;;6275221;28;20229;-58
2022/04/15 14:04:02;;;;;;;4.00;3.80;;;10.40;1.00;;;;;;6285245;28;20259;-56
2022/04/15 14:07:05;;;;;;;4.10;4.00;;;10.30;1.00;;;;;;6274559;28;20272;-58
2022/04/15 14:10:08;;;;;;;5.40;5.10;;;10.30;1.00;;;;;;6290758;28;20233;-58
2022/04/15 14:13:14;;;;;;;6.53;6.07;;;10.20;1.00;;;;;;6289082;28;20705;-56
2022/04/15 14:16:18;;;;;;;8.70;7.90;;;10.20;1.00;;;;;;6292462;28;20248;-58
2022/04/15 14:19:20;;;;;;;8.60;7.90;;;10.10;1.00;;;;;;6287218;28;20322;-57
2022/04/15 14:22:23;;;;;;;9.00;8.20;;;9.90;1.00;;;;;;6287641;28;20278;-57
2022/04/15 14:25:26;;;;;;;9.00;8.27;;;9.90;1.00;;;;;;6294403;28;20725;-57
2022/04/15 14:28:30;;;;;;;9.70;8.80;;;9.80;1.00;;;;;;6283137;28;20717;-57
2022/04/15 14:31:33;;;;;;;9.30;8.50;;;9.80;1.00;;;;;;6280649;28;20226;-58
2022/04/15 14:34:36;;;;;;;8.23;7.53;;;9.80;1.00;;;;;;6283160;28;20321;-56
2022/04/15 14:37:39;;;;;;;9.57;8.67;;;9.70;1.00;;;;;;6283281;28;20233;-57
2022/04/15 14:40:42;;;;;;;9.50;8.60;;;9.70;1.00;;;;;;6278435;28;20465;-58
2022/04/15 14:43:46;;;;;;;9.23;8.43;;;9.60;1.00;;;;;;6283175;28;20320;-57
2022/04/15 14:46:48;;;;;;;10.40;9.13;;;9.60;1.00;;;;;;6283123;28;20367;-56
2022/04/15 14:49:51;;;;;;;11.13;10.13;;;9.60;1.00;;;;;;6280710;28;20237;-56
2022/04/15 14:52:54;;;;;;;12.50;11.20;;;9.60;1.00;;;;;;6287853;28;20323;-58
2022/04/15 14:55:57;;;;;;;12.80;10.97;;;9.50;1.00;;;;;;6281235;28;20490;-56
2022/04/15 14:59:01;;;;;;;14.23;12.57;;;9.40;1.00;;;;;;6274703;28;20229;-57
2022/04/15 15:02:05;;;;;;;13.57;11.03;;;9.30;1.00;;;;;;6274469;28;20322;-56
2022/04/15 15:05:09;;;;;;;12.63;10.70;;;9.20;1.00;;;;;;6288270;28;20237;-55
2022/04/15 15:08:11;;;;;;;11.80;10.70;;;9.20;1.00;;;;;;6283698;28;20801;-56
2022/04/15 15:11:14;;;;;;;12.47;11.17;;;9.20;1.00;;;;;;6281441;28;20390;-56
2022/04/15 15:14:18;;;;;;;10.87;9.77;;;9.20;1.00;;;;;;6275017;28;20544;-57
2022/04/15 15:17:21;;;;;;;11.13;9.87;;;9.20;1.00;;;;;;6282643;28;20468;-55
2022/04/15 15:20:23;;;;;;;10.90;9.90;;;9.20;1.00;;;;;;6284787;28;20399;-56
2022/04/15 15:23:27;;;;;;;10.47;9.40;;;9.20;1.00;;;;;;6284577;28;20233;-57
2022/04/15 15:29:51;;;;;;;10.57;9.40;;;9.10;1.00;;;;;;6280467;28;20233;-55
2022/04/15 15:32:54;;;;;;;11.17;10.10;;;9.00;1.00;;;;;;6286321;28;20810;-56
2022/04/15 15:35:57;;;;;;;11.63;10.43;;;9.00;1.00;;;;;;6282319;28;20757;-55
2022/04/15 15:38:59;;;;;;;11.13;10.10;;;8.90;1.00;;;;;;6281215;28;20225;-56
2022/04/15 15:42:03;;;;;;;11.27;10.20;;;8.90;1.00;;;;;;6275974;28;20317;-57
2022/04/15 15:45:09;;;;;;;9.97;9.17;;;8.80;1.00;;;;;;6281508;28;20297;-55
2022/04/15 15:48:13;;;;;;;10.17;9.17;;;8.80;1.00;;;;;;6281693;28;20309;-55
2022/04/15 15:51:16;;;;;;;12.87;10.43;;;8.80;1.00;;;;;;6280989;28;25469;-56
2022/04/15 15:54:20;;;;;;;12.40;11.10;;;8.80;1.00;;;;;;6275248;28;20314;-56
2022/04/15 15:57:22;;;;;;;11.73;10.53;;;8.70;1.00;;;;;;6281984;28;20228;-57
2022/04/15 16:00:26;;;;;;;12.63;11.43;;;8.70;1.00;;;;;;6281231;28;20298;-57
2022/04/15 16:03:29;;;;;;;14.30;11.70;;;8.70;1.00;;;;;;6283592;28;20324;-57
2022/04/15 16:06:32;;;;;;;14.60;11.93;;;8.60;1.00;;;;;;6281736;28;20439;-56
2022/04/15 16:09:35;;;;;;;12.13;10.90;;;8.50;1.00;;;;;;6281558;28;20262;-55
2022/04/15 16:12:38;;;;;;;12.20;11.00;;;8.50;1.00;;;;;;6277765;28;20313;-55
2022/04/15 16:15:42;;;;;;;12.47;11.33;;;8.50;1.00;;;;;;6284298;28;20365;-56